Portada
METAR-TAF:

METAR-TAF

Aeropuertos :

Aeropuerto Internacional de Sharm el-Sheij

Sharm el-Sheij, Egipto

latitud: 27-58N, longitud: 034-23E, altitud: 50 m

Observación

El informe se hizo hace 48 minutos, a las 21:00 UTC
Viento 6 kt del noroeste
Temperatura 20°C
Humedad 40%
Presión 1015 hPa
Visibilidad 10 km o más
sin nubes por debajo de 1500 m y sin presencia de cumulonimbus.

METAR: HESH 032100Z 32006KT CAVOK 20/06 Q1015 NOSIG

Hora: 23:48 (21:48 UTC)

Pronóstico

El informe se hizo hace 4 horas y 48 minutos, a las 17:00 UTC
Pronóstico válido del 03 a las 18 UTC al 04 a las 24 UTC
Viento 15 kt del norte-noreste
Visibilidad 10 km o más
sin nubes por debajo de 1500 m y sin presencia de cumulonimbus.

TAF: HESH 031700Z 0318/0424 02015KT CAVOK

Observaciones y pronósticos meteorológicos de más de 4000 aeropuertos (mensajes METAR y TAF).

Los puntos amarillos y rojos representan las estaciones disponibles.

Ponga el ratón en el punto deseado para ver el nombre de la estación.

Haga clic para ver las observaciones y los pronósticos meteorológicos.

Para cambiar el mapa : haga clic en los botones verdes con una cruz de color negro para hacer un zoom, en el botón verde con un guión para alejar o en las flechas verdes para mapas adyacentes.


METAR-TAF: